Time;durP1;ratioP1;P1;durP2;ratioP2;P2;SDS_P1;SDS_P2;PMS_P1;PMS_P2;Temp;Humidity;BMP_temperature;BMP_pressure;BME280_temperature;BME280_humidity;BME280_pressure;Samples;Min_cycle;Max_cycle;Signal;HPM_P1;HPM_P2
2024/03/06 00:02:05;;;;;;;;;;;7.90;1.00;;;;;;5079575;28;19943;-88
2024/03/06 00:04:31;;;;;;;;;;;7.90;1.00;;;;;;5084298;28;20384;-86
2024/03/06 00:06:57;;;;;;;;;;;7.90;1.00;;;;;;5075286;28;19908;-86
2024/03/06 00:09:23;;;;;;;;;;;7.90;1.00;;;;;;5082042;28;19982;-86
2024/03/06 00:11:50;;;;;;;;;;;7.80;1.00;;;;;;5074453;28;19917;-87
2024/03/06 00:14:16;;;;;;;;;;;7.80;1.00;;;;;;5074225;28;19912;-86
2024/03/06 00:16:42;;;;;;;;;;;7.80;1.00;;;;;;5074463;28;19909;-87
2024/03/06 00:19:08;;;;;;;;;;;7.70;1.00;;;;;;5075894;28;19908;-86
2024/03/06 00:21:33;;;;;;;;;;;7.80;1.00;;;;;;5071398;28;19912;-86
2024/03/06 00:23:59;;;;;;;;;;;7.70;1.00;;;;;;5062707;28;19951;-87
2024/03/06 00:26:24;;;;;;;;;;;7.70;1.00;;;;;;5065478;28;20290;-86
2024/03/06 00:28:50;;;;;;;;;;;7.70;1.00;;;;;;5094158;28;19912;-86
2024/03/06 00:31:15;;;;;;;;;;;7.60;1.00;;;;;;5079030;28;19913;-87
2024/03/06 00:33:41;;;;;;;;;;;7.60;1.00;;;;;;5079691;28;20275;-86
2024/03/06 00:36:07;;;;;;;;;;;7.60;1.00;;;;;;5075288;28;19916;-86
2024/03/06 00:38:32;;;;;;;;;;;7.50;1.00;;;;;;5075635;28;19913;-86
2024/03/06 00:40:57;;;;;;;;;;;7.50;1.00;;;;;;5075910;28;19915;-86
2024/03/06 00:43:23;;;;;;;;;;;7.40;1.00;;;;;;5081925;28;19915;-87
2024/03/06 00:45:49;;;;;;;;;;;7.40;1.00;;;;;;5086682;28;19915;-87
2024/03/06 00:48:14;;;;;;;;;;;7.30;1.00;;;;;;5079489;28;20415;-86
2024/03/06 00:50:40;;;;;;;;;;;7.20;1.00;;;;;;5074824;28;19928;-88
2024/03/06 00:53:06;;;;;;;;;;;7.20;1.00;;;;;;5072310;28;19908;-86
2024/03/06 00:55:31;;;;;;;;;;;7.10;1.00;;;;;;5085619;28;19923;-85
2024/03/06 00:57:56;;;;;;;;;;;7.10;1.00;;;;;;5093602;28;19915;-86
2024/03/06 01:00:22;;;;;;;;;;;7.10;1.00;;;;;;5086243;28;20007;-87
2024/03/06 01:02:47;;;;;;;;;;;7.10;1.00;;;;;;5078457;28;19966;-85
2024/03/06 01:05:13;;;;;;;;;;;7.10;1.00;;;;;;5074788;28;20435;-86
2024/03/06 01:07:39;;;;;;;;;;;7.10;1.00;;;;;;5085198;28;19915;-85
2024/03/06 01:10:06;;;;;;;;;;;7.10;1.00;;;;;;5082349;28;19954;-86
2024/03/06 01:12:32;;;;;;;;;;;7.10;1.00;;;;;;5082790;28;20355;-86
2024/03/06 01:14:57;;;;;;;;;;;7.10;1.00;;;;;;5086290;28;19909;-86
2024/03/06 01:17:23;;;;;;;;;;;7.10;1.00;;;;;;5089707;28;19916;-86
2024/03/06 01:19:49;;;;;;;;;;;7.10;1.00;;;;;;5071510;28;20302;-85
2024/03/06 01:22:14;;;;;;;;;;;7.00;1.00;;;;;;5085206;28;19912;-86
2024/03/06 01:24:40;;;;;;;;;;;7.00;1.00;;;;;;5094514;28;19954;-86
2024/03/06 01:27:05;;;;;;;;;;;7.00;1.00;;;;;;5058789;28;19909;-86
2024/03/06 01:29:31;;;;;;;;;;;7.00;1.00;;;;;;5076464;28;19908;-86
2024/03/06 01:31:56;;;;;;;;;;;6.90;1.00;;;;;;5074829;28;19967;-86
2024/03/06 01:34:22;;;;;;;;;;;6.90;1.00;;;;;;5073858;28;19913;-86
2024/03/06 01:36:48;;;;;;;;;;;6.90;1.00;;;;;;5077282;28;19912;-86
2024/03/06 01:39:13;;;;;;;;;;;6.80;1.00;;;;;;5077261;28;19917;-87
2024/03/06 01:41:49;;;;;;;;;;;6.80;1.00;;;;;;5077527;28;19908;-86
2024/03/06 01:44:15;;;;;;;;;;;6.70;1.00;;;;;;5079125;28;19924;-86
2024/03/06 01:46:40;;;;;;;;;;;6.70;1.00;;;;;;5083219;28;19908;-86
2024/03/06 01:49:06;;;;;;;;;;;6.70;1.00;;;;;;5077863;28;19915;-84
2024/03/06 01:51:32;;;;;;;;;;;6.70;1.00;;;;;;5076364;28;20372;-86
2024/03/06 01:53:58;;;;;;;;;;;6.70;1.00;;;;;;5080611;28;19947;-86
2024/03/06 01:56:24;;;;;;;;;;;6.70;1.00;;;;;;5076901;28;19916;-86
2024/03/06 01:58:49;;;;;;;;;;;6.80;1.00;;;;;;5092759;28;19913;-86
2024/03/06 02:01:16;;;;;;;;;;;6.70;1.00;;;;;;5076883;28;19909;-86
2024/03/06 02:03:41;;;;;;;;;;;6.70;1.00;;;;;;5083782;28;19995;-86
2024/03/06 02:06:07;;;;;;;;;;;6.60;1.00;;;;;;5082512;28;20432;-86
2024/03/06 02:08:32;;;;;;;;;;;6.60;1.00;;;;;;5078599;28;19913;-85
2024/03/06 02:11:02;;;;;;;;;;;6.50;1.00;;;;;;5090562;28;20020;-86
2024/03/06 02:13:27;;;;;;;;;;;6.50;1.00;;;;;;5072405;28;19916;-85
2024/03/06 02:15:53;;;;;;;;;;;6.40;1.00;;;;;;5077718;28;19908;-86
2024/03/06 02:18:18;;;;;;;;;;;6.40;1.00;;;;;;5077069;28;19915;-87
2024/03/06 02:20:45;;;;;;;;;;;6.30;1.00;;;;;;5066618;28;19909;-84
2024/03/06 02:23:11;;;;;;;;;;;6.30;1.00;;;;;;5075361;28;19915;-86
2024/03/06 02:25:36;;;;;;;;;;;6.20;1.00;;;;;;5075314;28;20356;-86
2024/03/06 02:28:02;;;;;;;;;;;6.20;1.00;;;;;;5077656;28;19916;-86
2024/03/06 02:30:27;;;;;;;;;;;6.10;1.00;;;;;;5080305;28;19935;-85
2024/03/06 02:32:53;;;;;;;;;;;6.10;1.00;;;;;;5097767;28;19908;-86
2024/03/06 02:35:18;;;;;;;;;;;6.10;1.00;;;;;;5083194;28;19909;-86
2024/03/06 02:37:44;;;;;;;;;;;6.10;1.00;;;;;;5084328;28;20333;-86
2024/03/06 02:40:10;;;;;;;;;;;6.10;1.00;;;;;;5077833;28;19985;-86
2024/03/06 02:42:38;;;;;;;;;;;6.10;1.00;;;;;;5086194;28;19916;-86
2024/03/06 02:45:05;;;;;;;;;;;6.10;1.00;;;;;;5080449;28;19958;-86
2024/03/06 02:47:30;;;;;;;;;;;6.00;1.00;;;;;;5068481;28;19908;-85
2024/03/06 02:49:56;;;;;;;;;;;6.10;1.00;;;;;;5077245;28;19995;-86
2024/03/06 02:52:21;;;;;;;;;;;6.00;1.00;;;;;;5071632;28;19962;-86
2024/03/06 02:54:46;;;;;;;;;;;6.00;1.00;;;;;;5079906;22;20344;-81
2024/03/06 02:57:12;;;;;;;;;;;6.00;1.00;;;;;;5062284;28;19917;-85
2024/03/06 02:59:39;;;;;;;;;;;5.90;1.00;;;;;;5072041;28;19967;-83
2024/03/06 03:02:05;;;;;;;;;;;5.90;1.00;;;;;;5063488;28;19992;-83
2024/03/06 03:04:30;;;;;;;;;;;5.90;1.00;;;;;;5079249;28;19959;-85
2024/03/06 03:06:56;;;;;;;;;;;5.90;1.00;;;;;;5073545;28;19983;-82
2024/03/06 03:09:21;;;;;;;;;;;5.80;1.00;;;;;;5075756;28;19912;-83
2024/03/06 03:11:46;;;;;;;;;;;5.80;1.00;;;;;;5085435;28;19928;-85
2024/03/06 03:14:12;;;;;;;;;;;5.70;1.00;;;;;;5080386;28;19921;-83
2024/03/06 03:16:38;;;;;;;;;;;5.70;1.00;;;;;;5076602;28;19917;-84
2024/03/06 03:19:03;;;;;;;;;;;5.70;1.00;;;;;;5077139;28;19920;-84
2024/03/06 03:21:28;;;;;;;;;;;5.60;1.00;;;;;;5072523;28;19915;-84
2024/03/06 03:23:54;;;;;;;;;;;5.60;1.00;;;;;;5067081;28;20369;-83
2024/03/06 03:26:19;;;;;;;;;;;5.60;1.00;;;;;;5067935;28;19913;-84
2024/03/06 03:28:45;;;;;;;;;;;5.60;1.00;;;;;;5070086;28;19905;-83
2024/03/06 03:31:10;;;;;;;;;;;5.60;1.00;;;;;;5065371;28;19920;-83
2024/03/06 03:33:39;;;;;;;;;;;5.50;1.00;;;;;;5076770;28;20355;-84
2024/03/06 03:36:08;;;;;;;;;;;5.50;1.00;;;;;;5083028;28;19958;-82
2024/03/06 03:38:38;;;;;;;;;;;5.50;1.00;;;;;;5066939;28;19962;-83
2024/03/06 03:41:10;;;;;;;;;;;5.50;1.00;;;;;;5065031;28;19913;-83
2024/03/06 03:43:35;;;;;;;;;;;5.50;1.00;;;;;;5065817;28;19913;-84
2024/03/06 03:46:01;;;;;;;;;;;5.40;1.00;;;;;;5063160;28;19947;-84
2024/03/06 03:48:29;;;;;;;;;;;5.40;1.00;;;;;;5067549;28;19909;-85
2024/03/06 03:50:54;;;;;;;;;;;5.40;1.00;;;;;;5068104;28;19925;-84
2024/03/06 03:53:20;;;;;;;;;;;5.30;1.00;;;;;;5066790;28;19921;-84
2024/03/06 03:55:45;;;;;;;;;;;5.30;1.00;;;;;;5084088;28;19916;-84
2024/03/06 03:58:11;;;;;;;;;;;5.30;1.00;;;;;;5072569;28;20003;-84
2024/03/06 04:00:38;;;;;;;;;;;5.30;1.00;;;;;;5065923;28;19927;-86
2024/03/06 04:03:03;;;;;;;;;;;5.30;1.00;;;;;;5052805;28;20482;-85
2024/03/06 04:05:29;;;;;;;;;;;5.40;1.00;;;;;;5050250;28;19960;-79
2024/03/06 04:07:54;;;;;;;;;;;5.40;1.00;;;;;;5066175;28;19944;-82
2024/03/06 04:10:20;;;;;;;;;;;5.40;1.00;;;;;;5056367;28;19919;-84
2024/03/06 04:12:46;;;;;;;;;;;5.30;1.00;;;;;;5061498;28;19913;-83
2024/03/06 04:15:11;;;;;;;;;;;5.30;1.00;;;;;;5065628;28;19916;-82
2024/03/06 04:17:37;;;;;;;;;;;5.30;1.00;;;;;;5057404;28;19908;-82
2024/03/06 04:20:04;;;;;;;;;;;5.30;1.00;;;;;;5057353;28;19954;-83
2024/03/06 04:22:30;;;;;;;;;;;5.30;1.00;;;;;;5070766;28;19908;-82
2024/03/06 04:24:56;;;;;;;;;;;5.30;1.00;;;;;;5056227;28;19915;-83
2024/03/06 04:27:22;;;;;;;;;;;5.30;1.00;;;;;;5062623;28;20347;-83
2024/03/06 04:29:47;;;;;;;;;;;5.20;1.00;;;;;;5058115;28;19948;-83
2024/03/06 04:32:13;;;;;;;;;;;5.20;1.00;;;;;;5057450;28;20007;-82
2024/03/06 04:34:38;;;;;;;;;;;5.20;1.00;;;;;;5058411;28;19909;-85
2024/03/06 04:37:04;;;;;;;;;;;5.10;1.00;;;;;;5064104;28;20315;-83
2024/03/06 04:39:29;;;;;;;;;;;5.10;1.00;;;;;;5061679;28;19937;-84
2024/03/06 04:41:55;;;;;;;;;;;5.10;1.00;;;;;;5073549;28;19931;-84
2024/03/06 04:44:20;;;;;;;;;;;5.10;1.00;;;;;;5064766;28;19921;-82
2024/03/06 04:46:49;;;;;;;;;;;5.00;1.00;;;;;;5072894;28;20384;-85
2024/03/06 04:49:14;;;;;;;;;;;5.00;1.00;;;;;;5066493;28;19909;-83
2024/03/06 04:51:40;;;;;;;;;;;5.00;1.00;;;;;;5072398;28;19926;-84
2024/03/06 04:54:05;;;;;;;;;;;5.00;1.00;;;;;;5054900;28;19909;-84
2024/03/06 04:56:31;;;;;;;;;;;5.00;1.00;;;;;;5066444;28;19916;-84
2024/03/06 04:58:57;;;;;;;;;;;5.00;1.00;;;;;;5080073;28;19978;-83
2024/03/06 05:01:23;;;;;;;;;;;5.00;1.00;;;;;;5069877;28;20397;-84
2024/03/06 05:03:49;;;;;;;;;;;5.00;1.00;;;;;;5063095;28;19909;-84
2024/03/06 05:06:14;;;;;;;;;;;5.00;1.00;;;;;;5063512;28;19908;-84
2024/03/06 05:08:40;;;;;;;;;;;5.00;1.00;;;;;;5064134;28;20361;-83
2024/03/06 05:11:06;;;;;;;;;;;4.90;1.00;;;;;;5070113;28;20003;-84
2024/03/06 05:13:31;;;;;;;;;;;5.00;1.00;;;;;;5053702;28;19961;-83
2024/03/06 05:15:57;;;;;;;;;;;5.00;1.00;;;;;;5057949;28;19932;-83
2024/03/06 05:18:22;;;;;;;;;;;5.00;1.00;;;;;;5075855;28;20396;-83
2024/03/06 05:20:48;;;;;;;;;;;5.10;1.00;;;;;;5071209;28;19916;-83
2024/03/06 05:23:14;;;;;;;;;;;5.10;1.00;;;;;;5059497;28;20005;-82
2024/03/06 05:25:40;;;;;;;;;;;5.10;1.00;;;;;;5067339;28;20394;-83
2024/03/06 05:28:06;;;;;;;;;;;5.20;1.00;;;;;;5075733;28;19908;-84
2024/03/06 05:30:31;;;;;;;;;;;5.20;1.00;;;;;;5061405;28;20325;-83
2024/03/06 05:32:57;;;;;;;;;;;5.30;1.00;;;;;;5054707;28;19908;-83
2024/03/06 05:35:22;;;;;;;;;;;5.30;1.00;;;;;;5055989;28;19909;-84
2024/03/06 05:37:47;;;;;;;;;;;5.30;1.00;;;;;;5062680;28;19919;-82
2024/03/06 05:40:13;;;;;;;;;;;5.40;1.00;;;;;;5073688;28;19908;-83
2024/03/06 05:42:38;;;;;;;;;;;5.40;1.00;;;;;;5084525;28;19991;-85
2024/03/06 05:45:10;;;;;;;;;;;5.40;1.00;;;;;;5076504;28;19959;-82
2024/03/06 05:47:36;;;;;;;;;;;5.40;1.00;;;;;;5069330;28;19939;-83
2024/03/06 05:50:04;;;;;;;;;;;5.40;1.00;;;;;;5072709;28;19995;-83
2024/03/06 05:52:30;;;;;;;;;;;5.40;1.00;;;;;;5074413;28;19913;-82
2024/03/06 05:54:55;;;;;;;;;;;5.30;1.00;;;;;;5080775;28;19913;-84
2024/03/06 05:57:21;;;;;;;;;;;5.30;1.00;;;;;;5056822;28;19947;-83
2024/03/06 05:59:46;;;;;;;;;;;5.30;1.00;;;;;;5062766;28;19920;-84
2024/03/06 06:02:12;;;;;;;;;;;5.20;1.00;;;;;;5072555;28;19916;-84
2024/03/06 06:04:37;;;;;;;;;;;5.20;1.00;;;;;;5063396;28;19915;-83
2024/03/06 06:07:03;;;;;;;;;;;5.10;1.00;;;;;;5067764;28;20321;-84
2024/03/06 06:09:28;;;;;;;;;;;5.10;1.00;;;;;;5068502;28;19909;-84
2024/03/06 06:11:54;;;;;;;;;;;5.00;1.00;;;;;;5064533;28;19916;-84
2024/03/06 06:14:19;;;;;;;;;;;5.00;1.00;;;;;;5071594;28;20011;-83
2024/03/06 06:16:45;;;;;;;;;;;4.90;1.00;;;;;;5088100;28;19916;-85
2024/03/06 06:19:10;;;;;;;;;;;4.80;1.00;;;;;;5086573;28;19908;-84
2024/03/06 06:21:37;;;;;;;;;;;4.80;1.00;;;;;;5077573;28;19909;-84
2024/03/06 06:24:05;;;;;;;;;;;4.90;1.00;;;;;;5068493;28;19909;-84
2024/03/06 06:26:31;;;;;;;;;;;4.90;1.00;;;;;;5062409;28;19913;-84
2024/03/06 06:28:57;;;;;;;;;;;5.00;1.00;;;;;;5057435;28;20012;-84
2024/03/06 06:31:25;;;;;;;;;;;5.00;1.00;;;;;;5070641;28;19966;-83
2024/03/06 06:33:51;;;;;;;;;;;5.10;1.00;;;;;;5080686;28;19948;-84
2024/03/06 06:36:17;;;;;;;;;;;5.10;1.00;;;;;;5064330;28;19955;-82
2024/03/06 06:38:43;;;;;;;;;;;5.20;1.00;;;;;;5063706;28;19909;-83
2024/03/06 06:41:10;;;;;;;;;;;5.30;1.00;;;;;;5059858;28;19912;-81
2024/03/06 06:43:35;;;;;;;;;;;5.40;1.00;;;;;;5061350;28;19944;-82
2024/03/06 06:46:01;;;;;;;;;;;5.50;1.00;;;;;;5054670;28;20433;-83
2024/03/06 06:48:27;;;;;;;;;;;5.60;1.00;;;;;;5061473;28;20282;-83
2024/03/06 06:50:52;;;;;;;;;;;5.60;1.00;;;;;;5064808;28;19917;-83
2024/03/06 06:53:17;;;;;;;;;;;5.70;1.00;;;;;;5056935;28;19916;-82
2024/03/06 06:55:43;;;;;;;;;;;5.70;1.00;;;;;;5057386;28;19924;-83
2024/03/06 06:58:08;;;;;;;;;;;5.80;1.00;;;;;;5059575;28;19909;-83
2024/03/06 07:00:36;;;;;;;;;;;5.90;1.00;;;;;;5064889;28;19917;-83
2024/03/06 07:03:02;;;;;;;;;;;6.10;1.00;;;;;;5058509;28;19913;-82
2024/03/06 07:05:27;;;;;;;;;;;6.30;1.00;;;;;;5064398;28;19915;-82
2024/03/06 07:07:53;;;;;;;;;;;6.40;99.90;;;;;;5068167;28;20418;-85
2024/03/06 07:10:19;;;;;;;;;;;6.50;99.90;;;;;;5065794;28;19909;-84
2024/03/06 07:12:44;;;;;;;;;;;6.60;99.90;;;;;;5065341;28;19917;-84
2024/03/06 07:15:10;;;;;;;;;;;6.70;1.00;;;;;;5069562;28;19992;-85
2024/03/06 07:17:35;;;;;;;;;;;6.70;1.00;;;;;;5069355;28;19913;-84
2024/03/06 07:20:01;;;;;;;;;;;6.70;1.00;;;;;;5063021;28;19913;-83
2024/03/06 07:22:26;;;;;;;;;;;6.80;1.00;;;;;;5066068;28;19912;-84
2024/03/06 07:24:52;;;;;;;;;;;6.90;1.00;;;;;;5062702;28;19935;-83
2024/03/06 07:27:18;;;;;;;;;;;7.10;1.00;;;;;;5065046;28;19976;-84
2024/03/06 07:29:43;;;;;;;;;;;7.20;1.00;;;;;;5066235;28;19987;-83
2024/03/06 07:32:09;;;;;;;;;;;7.40;1.00;;;;;;5069063;28;19917;-84
2024/03/06 07:34:34;;;;;;;;;;;7.50;1.00;;;;;;5074987;28;19923;-83
2024/03/06 07:37:00;;;;;;;;;;;7.70;1.00;;;;;;5068903;28;20436;-86
2024/03/06 07:39:25;;;;;;;;;;;7.90;99.90;;;;;;5077372;28;20163;-84
2024/03/06 07:41:51;;;;;;;;;;;8.10;91.80;;;;;;5065234;28;20382;-81
2024/03/06 07:44:17;;;;;;;;;;;8.50;1.00;;;;;;5059579;28;19912;-84
2024/03/06 07:46:42;;;;;;;;;;;9.30;99.90;;;;;;5070428;28;19954;-83
2024/03/06 07:49:08;;;;;;;;;;;10.00;99.90;;;;;;5061221;28;19915;-83
2024/03/06 07:51:34;;;;;;;;;;;10.30;1.00;;;;;;5068505;28;19923;-84
2024/03/06 07:53:59;;;;;;;;;;;10.50;99.90;;;;;;5060441;28;19923;-84
2024/03/06 07:56:25;;;;;;;;;;;10.50;36.80;;;;;;5064596;28;19928;-83
2024/03/06 07:58:50;;;;;;;;;;;10.30;1.00;;;;;;5062280;28;19920;-84
2024/03/06 08:01:16;;;;;;;;;;;10.20;1.00;;;;;;5052616;28;19954;-82
2024/03/06 08:03:42;;;;;;;;;;;10.20;1.00;;;;;;5056974;28;20286;-83
2024/03/06 08:06:11;;;;;;;;;;;10.60;1.00;;;;;;5056876;28;19931;-83
2024/03/06 08:08:36;;;;;;;;;;;11.10;1.00;;;;;;5056826;28;19908;-84
2024/03/06 08:11:02;;;;;;;;;;;11.70;99.90;;;;;;5036893;28;19928;-83
2024/03/06 08:13:28;;;;;;;;;;;12.50;99.90;;;;;;5046680;28;19936;-84
2024/03/06 08:15:53;;;;;;;;;;;13.60;1.00;;;;;;5068705;28;20293;-83
2024/03/06 08:18:19;;;;;;;;;;;14.90;1.00;;;;;;5064709;28;19920;-84
2024/03/06 08:20:44;;;;;;;;;;;17.20;1.00;;;;;;5054877;28;19925;-85
2024/03/06 08:23:10;;;;;;;;;;;20.00;1.00;;;;;;5055442;28;19916;-83
2024/03/06 08:25:35;;;;;;;;;;;21.90;99.90;;;;;;5049659;28;20000;-84
2024/03/06 08:28:03;;;;;;;;;;;22.90;99.90;;;;;;5065019;28;20385;-84
2024/03/06 08:30:30;;;;;;;;;;;22.50;99.90;;;;;;5060165;28;19916;-84
2024/03/06 08:32:56;;;;;;;;;;;24.70;99.90;;;;;;5068386;28;19923;-84
2024/03/06 08:35:23;;;;;;;;;;;24.00;99.90;;;;;;5062725;28;19944;-86
2024/03/06 08:37:49;;;;;;;;;;;24.80;99.90;;;;;;5056270;28;19956;-86
2024/03/06 08:40:14;;;;;;;;;;;26.60;99.90;;;;;;5058444;28;19920;-85
2024/03/06 08:42:41;;;;;;;;;;;26.20;99.90;;;;;;5057331;28;19994;-86
2024/03/06 08:45:07;;;;;;;;;;;25.70;99.90;;;;;;5068827;28;19913;-85
2024/03/06 08:47:33;;;;;;;;;;;24.70;99.90;;;;;;5065558;28;19931;-84
2024/03/06 08:49:59;;;;;;;;;;;23.40;99.90;;;;;;5065374;28;19952;-85
2024/03/06 08:52:24;;;;;;;;;;;22.00;99.90;;;;;;5064864;28;20444;-86
2024/03/06 08:54:50;;;;;;;;;;;21.20;99.90;;;;;;5064421;28;19935;-85
2024/03/06 08:57:16;;;;;;;;;;;22.00;99.90;;;;;;5082039;23;20389;-85
2024/03/06 08:59:43;;;;;;;;;;;23.10;99.90;;;;;;5063889;28;19916;-85
2024/03/06 09:02:15;;;;;;;;;;;24.40;99.90;;;;;;5061298;28;19999;-84
2024/03/06 09:04:44;;;;;;;;;;;26.40;99.90;;;;;;5058751;28;19948;-85
2024/03/06 09:07:10;;;;;;;;;;;28.00;99.90;;;;;;5047510;28;20326;-85
2024/03/06 09:09:36;;;;;;;;;;;29.70;99.90;;;;;;5053031;28;19921;-83
2024/03/06 09:12:05;;;;;;;;;;;30.80;99.90;;;;;;5052081;28;19909;-85
2024/03/06 09:14:31;;;;;;;;;;;31.30;99.90;;;;;;5051625;28;19913;-84
2024/03/06 09:16:57;;;;;;;;;;;31.40;99.90;;;;;;5047096;28;19917;-84
2024/03/06 09:19:22;;;;;;;;;;;31.80;99.90;;;;;;5045105;28;19913;-84
2024/03/06 09:21:48;;;;;;;;;;;32.40;99.90;;;;;;5052230;28;19920;-84
2024/03/06 09:24:14;;;;;;;;;;;32.90;99.90;;;;;;5056135;28;19999;-85
2024/03/06 09:26:39;;;;;;;;;;;33.50;99.90;;;;;;5057257;28;19916;-83
2024/03/06 09:29:05;;;;;;;;;;;34.10;99.90;;;;;;5057426;28;19909;-83
2024/03/06 09:31:30;;;;;;;;;;;34.10;99.90;;;;;;5057700;28;19952;-85
2024/03/06 09:33:56;;;;;;;;;;;34.10;99.90;;;;;;5056912;28;20010;-84
2024/03/06 09:36:21;;;;;;;;;;;34.20;99.90;;;;;;5055459;28;19909;-85
2024/03/06 09:38:46;;;;;;;;;;;34.30;99.90;;;;;;5051046;28;19948;-85
2024/03/06 09:41:12;;;;;;;;;;;34.70;99.90;;;;;;5059508;28;20021;-85
2024/03/06 09:43:41;;;;;;;;;;;35.00;99.90;;;;;;5056723;28;19909;-84
2024/03/06 09:46:06;;;;;;;;;;;35.00;99.90;;;;;;5063563;28;19944;-84
2024/03/06 09:48:33;;;;;;;;;;;35.00;99.90;;;;;;5063937;28;19916;-85
2024/03/06 09:51:01;;;;;;;;;;;35.00;99.90;;;;;;5060044;28;19920;-84
2024/03/06 09:53:26;;;;;;;;;;;34.70;99.90;;;;;;5051441;28;20420;-84
2024/03/06 09:55:52;;;;;;;;;;;34.80;99.90;;;;;;5044464;28;19959;-84
2024/03/06 09:58:17;;;;;;;;;;;35.00;99.90;;;;;;5055113;28;20290;-84
2024/03/06 10:00:44;;;;;;;;;;;35.20;99.90;;;;;;5058616;28;19917;-85
2024/03/06 10:03:11;;;;;;;;;;;35.40;99.90;;;;;;5060176;28;19915;-84
2024/03/06 10:05:36;;;;;;;;;;;35.40;99.90;;;;;;5044617;28;19909;-84
2024/03/06 10:08:03;;;;;;;;;;;35.40;99.90;;;;;;5046604;28;20012;-85
2024/03/06 10:10:29;;;;;;;;;;;35.60;99.90;;;;;;5042792;28;19909;-84
2024/03/06 10:12:56;;;;;;;;;;;35.60;99.90;;;;;;5041055;28;19909;-82
2024/03/06 10:15:22;;;;;;;;;;;35.30;99.90;;;;;;5049399;28;19913;-83
2024/03/06 10:17:51;;;;;;;;;;;35.10;99.90;;;;;;5053190;28;19912;-84
2024/03/06 10:20:20;;;;;;;;;;;34.80;99.90;;;;;;5060533;28;19916;-85
2024/03/06 10:22:47;;;;;;;;;;;34.50;99.90;;;;;;5057481;28;20327;-83
2024/03/06 10:25:12;;;;;;;;;;;34.20;99.90;;;;;;5058855;28;19909;-85
2024/03/06 10:27:38;;;;;;;;;;;34.10;99.90;;;;;;5061760;28;19962;-83
2024/03/06 10:30:04;;;;;;;;;;;33.80;99.90;;;;;;5055999;28;19909;-85
2024/03/06 10:32:30;;;;;;;;;;;33.50;99.90;;;;;;5053111;28;19932;-85
2024/03/06 10:34:55;;;;;;;;;;;33.50;99.90;;;;;;5044464;28;19933;-85
2024/03/06 10:37:22;;;;;;;;;;;33.30;99.90;;;;;;5051026;28;19909;-84
2024/03/06 10:39:51;;;;;;;;;;;33.30;99.90;;;;;;5059830;28;19963;-85
2024/03/06 10:42:17;;;;;;;;;;;33.20;99.90;;;;;;5050114;28;20000;-82
2024/03/06 10:44:49;;;;;;;;;;;33.20;99.90;;;;;;5064287;28;19915;-84
2024/03/06 10:47:15;;;;;;;;;;;33.50;99.90;;;;;;5057211;28;19983;-85
2024/03/06 10:49:42;;;;;;;;;;;33.50;99.90;;;;;;5053133;28;19913;-84
2024/03/06 10:52:09;;;;;;;;;;;33.10;99.90;;;;;;5059111;28;20381;-84
2024/03/06 10:54:36;;;;;;;;;;;32.70;99.90;;;;;;5056347;28;19920;-84
2024/03/06 10:57:02;;;;;;;;;;;32.70;99.90;;;;;;5057204;28;20306;-84
2024/03/06 10:59:28;;;;;;;;;;;33.00;99.90;;;;;;5063506;28;19909;-84
2024/03/06 11:01:57;;;;;;;;;;;32.90;99.90;;;;;;5045639;28;19913;-83
2024/03/06 11:04:25;;;;;;;;;;;33.00;99.90;;;;;;5044594;28;19955;-82
2024/03/06 11:06:50;;;;;;;;;;;32.70;99.90;;;;;;5044229;28;19944;-83
2024/03/06 11:09:16;;;;;;;;;;;32.50;99.90;;;;;;5043730;28;19909;-85
2024/03/06 11:11:48;;;;;;;;;;;32.70;99.90;;;;;;5058237;28;19944;-84
2024/03/06 11:14:13;;;;;;;;;;;33.20;99.90;;;;;;5062974;28;19909;-85
2024/03/06 11:16:58;;;;;;;;;;;33.80;99.90;;;;;;5059742;28;19939;-83
2024/03/06 11:19:24;;;;;;;;;;;32.60;99.90;;;;;;5066058;28;19909;-85
2024/03/06 11:21:49;;;;;;;;;;;31.80;99.90;;;;;;5065933;28;19913;-85
2024/03/06 11:24:16;;;;;;;;;;;31.20;99.90;;;;;;5064762;28;19924;-82
2024/03/06 11:27:00;;;;;;;;;;;30.00;99.90;;;;;;5058490;28;20446;-83
2024/03/06 11:29:29;;;;;;;;;;;29.60;99.90;;;;;;5059566;28;19908;-84
2024/03/06 11:32:07;;;;;;;;;;;28.10;99.90;;;;;;5061781;28;20393;-82
2024/03/06 11:34:34;;;;;;;;;;;26.50;99.90;;;;;;5058855;28;20399;-81
2024/03/06 11:37:04;;;;;;;;;;;26.10;99.90;;;;;;5060510;28;19935;-83
2024/03/06 11:39:34;;;;;;;;;;;26.90;99.90;;;;;;5059288;28;19912;-82
2024/03/06 11:41:59;;;;;;;;;;;28.10;99.90;;;;;;5047794;28;19917;-83
2024/03/06 11:44:26;;;;;;;;;;;28.80;99.90;;;;;;5051776;28;19913;-83
2024/03/06 11:46:54;;;;;;;;;;;29.50;99.90;;;;;;5047715;28;20436;-84
2024/03/06 11:49:32;;;;;;;;;;;29.70;99.90;;;;;;5052339;28;19913;-82
2024/03/06 11:51:58;;;;;;;;;;;29.60;99.90;;;;;;5046534;28;19936;-84
2024/03/06 11:54:25;;;;;;;;;;;30.00;99.90;;;;;;5047509;28;19968;-82
2024/03/06 11:56:53;;;;;;;;;;;30.00;99.90;;;;;;5056507;28;19916;-84
2024/03/06 11:59:23;;;;;;;;;;;29.80;99.90;;;;;;5051022;28;19917;-83
2024/03/06 12:01:49;;;;;;;;;;;30.30;99.90;;;;;;5049027;28;19990;-84
2024/03/06 12:04:14;;;;;;;;;;;30.60;99.90;;;;;;5051291;28;19912;-83
2024/03/06 12:06:40;;;;;;;;;;;30.90;99.90;;;;;;5049268;28;19975;-83
2024/03/06 12:09:08;;;;;;;;;;;31.00;99.90;;;;;;5048463;28;19975;-86
2024/03/06 12:11:36;;;;;;;;;;;31.00;99.90;;;;;;5048712;28;19968;-85
2024/03/06 12:14:01;;;;;;;;;;;31.70;99.90;;;;;;5047808;28;20394;-84
2024/03/06 12:16:27;;;;;;;;;;;31.90;99.90;;;;;;5040777;28;19936;-84
2024/03/06 12:18:59;;;;;;;;;;;32.10;99.90;;;;;;5050198;28;19920;-83
2024/03/06 12:21:31;;;;;;;;;;;32.30;99.90;;;;;;5057035;28;20577;-83
2024/03/06 12:24:03;;;;;;;;;;;32.60;99.90;;;;;;5056715;28;20437;-85
2024/03/06 12:26:29;;;;;;;;;;;32.60;99.90;;;;;;5054333;28;19923;-85
2024/03/06 12:29:03;;;;;;;;;;;32.70;99.90;;;;;;5059244;28;19952;-83
2024/03/06 12:31:28;;;;;;;;;;;32.20;99.90;;;;;;5063665;28;19919;-85
2024/03/06 12:33:57;;;;;;;;;;;31.20;99.90;;;;;;5063699;28;19909;-83
2024/03/06 12:36:25;;;;;;;;;;;30.80;99.90;;;;;;5058928;28;19913;-84
2024/03/06 12:38:54;;;;;;;;;;;30.60;99.90;;;;;;5059080;28;19931;-83
2024/03/06 12:41:20;;;;;;;;;;;30.10;99.90;;;;;;5037724;28;19959;-84
2024/03/06 12:43:45;;;;;;;;;;;29.40;99.90;;;;;;5038124;28;19909;-83
2024/03/06 12:46:11;;;;;;;;;;;29.20;99.90;;;;;;5045398;28;19909;-83
2024/03/06 12:48:36;;;;;;;;;;;29.10;99.90;;;;;;5038662;28;19909;-84
2024/03/06 12:51:04;;;;;;;;;;;29.00;99.90;;;;;;5041169;28;19920;-83
2024/03/06 12:53:30;;;;;;;;;;;29.20;99.90;;;;;;5050725;28;19912;-83
2024/03/06 12:55:56;;;;;;;;;;;29.70;99.90;;;;;;5050625;28;20006;-83
2024/03/06 12:58:21;;;;;;;;;;;30.10;99.90;;;;;;5041772;28;19913;-84
2024/03/06 13:00:47;;;;;;;;;;;30.30;99.90;;;;;;5037343;28;19916;-85
2024/03/06 13:03:12;;;;;;;;;;;29.90;99.90;;;;;;5037101;28;19909;-83
2024/03/06 13:05:38;;;;;;;;;;;29.50;99.90;;;;;;5048766;28;19918;-84
2024/03/06 13:08:04;;;;;;;;;;;29.00;99.90;;;;;;5056033;28;19952;-84
2024/03/06 13:10:29;;;;;;;;;;;28.70;99.90;;;;;;5048707;28;19916;-84
2024/03/06 13:12:55;;;;;;;;;;;28.50;99.90;;;;;;5047894;28;19912;-84
2024/03/06 13:15:20;;;;;;;;;;;28.00;99.90;;;;;;5051486;28;19910;-85
2024/03/06 13:17:45;;;;;;;;;;;27.80;99.90;;;;;;5054678;28;20355;-84
2024/03/06 13:20:11;;;;;;;;;;;27.70;99.90;;;;;;5048679;28;19910;-84
2024/03/06 13:22:37;;;;;;;;;;;27.50;99.90;;;;;;5050028;28;19917;-84
2024/03/06 13:25:03;;;;;;;;;;;27.20;99.90;;;;;;5054950;28;19913;-85
2024/03/06 13:27:29;;;;;;;;;;;27.20;99.90;;;;;;5052268;28;19913;-85
2024/03/06 13:29:54;;;;;;;;;;;27.60;99.90;;;;;;5059411;28;19913;-83
2024/03/06 13:32:20;;;;;;;;;;;27.90;99.90;;;;;;5058481;28;19913;-83
2024/03/06 13:34:45;;;;;;;;;;;28.20;99.90;;;;;;5055119;28;19933;-84
2024/03/06 13:37:11;;;;;;;;;;;28.40;99.90;;;;;;5057352;28;19916;-85
2024/03/06 13:39:36;;;;;;;;;;;28.60;99.90;;;;;;5052517;28;19986;-83
2024/03/06 13:42:02;;;;;;;;;;;28.50;99.90;;;;;;5055159;28;19913;-85
2024/03/06 13:44:28;;;;;;;;;;;28.00;99.90;;;;;;5058762;28;19944;-84
2024/03/06 13:46:53;;;;;;;;;;;27.20;99.90;;;;;;5041353;28;19988;-82
2024/03/06 13:49:38;;;;;;;;;;;26.70;99.90;;;;;;5042965;28;19909;-84
2024/03/06 13:52:05;;;;;;;;;;;26.60;99.90;;;;;;5063439;28;19924;-84
2024/03/06 13:54:30;;;;;;;;;;;26.50;99.90;;;;;;5059243;28;20012;-84
2024/03/06 13:57:01;;;;;;;;;;;26.00;99.90;;;;;;5040110;28;19960;-83
2024/03/06 13:59:32;;;;;;;;;;;25.10;99.90;;;;;;5048391;28;19928;-84
2024/03/06 14:02:02;;;;;;;;;;;24.70;99.90;;;;;;5047394;28;20016;-83
2024/03/06 14:04:28;;;;;;;;;;;24.30;99.90;;;;;;5047488;28;19916;-84
2024/03/06 14:06:53;;;;;;;;;;;24.00;99.90;;;;;;5046018;28;20437;-83
2024/03/06 14:09:19;;;;;;;;;;;23.30;99.40;;;;;;5046895;28;19913;-83
2024/03/06 14:11:45;;;;;;;;;;;22.90;99.10;;;;;;5048210;28;19909;-83
2024/03/06 14:14:13;;;;;;;;;;;22.90;99.30;;;;;;5056162;28;19913;-84
2024/03/06 14:16:40;;;;;;;;;;;23.00;99.90;;;;;;5058078;28;20378;-85
2024/03/06 14:19:05;;;;;;;;;;;23.30;99.90;;;;;;5039856;28;19913;-84
2024/03/06 14:21:31;;;;;;;;;;;23.40;99.90;;;;;;5047873;28;20429;-82
2024/03/06 14:23:59;;;;;;;;;;;23.60;99.90;;;;;;5058546;28;20337;-83
2024/03/06 14:26:27;;;;;;;;;;;23.40;99.90;;;;;;5059127;28;19909;-82